Forside
METAR-TAF:

METAR-TAF

Lufthavne :

Multan, Pakistan

Breddekreds: 30-12-12N, længdekreds: 71-25-09E, højde: 122 m

Aktuelle vejr

Denne rapport blev lavet for 35 minutter siden, kl. 17:00 UTC
Vind stille
Temperatur 26°C
Fugtighed 45%
Tryk 1011 hPa
Sigt: 5000 m
tåge/dis

METAR: OPMT 031700Z 00000KT 5000 HZ NSC 26/13 Q1011 NOSIG

Tid: 22:35 (17:35 UTC)

Vejrudsigter

Denne rapport blev lavet for 7 timer og 50 minutter siden, kl. 09:45 UTC
Foreløbig gælder fra 03 på 12 UTC til 04 på 06 UTC
Vind 5 kt fra nord
Sigt: 4000 m
Nogle få skyer i en højde af 12000 ft
tåge/dis

TAF: OPMT 030945Z 0312/0406 36005KT 4000 HZ FEW120 TN15/0401Z

Vejrobservationer og prognoser fra mere end 4000 lufthavne (METAR og TAF).

De gule og røde prikker repræsenterer de meteorologiske stationer.

Flyt musen over at se navnet på stationen.

Så klik over at se vejr observationer og prognoser.

At skifte det kort: Klik på de grønne knapper med et sort kors for at zoome ind; på den grønne knap med en bindestreg for at zoome ud; eller på de grønne pile for tilstødende kort.


METAR-TAF: